sensor_id;sensor_type;location;lat;lon;timestamp;P1;durP1;ratioP1;P2;durP2;ratioP2
46881;SDS011;44112;38.408;-122.974;2022-10-18T00:00:02;8.75;;;3.83;;
46881;SDS011;44112;38.408;-122.974;2022-10-18T00:02:31;8.13;;;4.05;;
46881;SDS011;44112;38.408;-122.974;2022-10-18T00:04:57;9.90;;;3.60;;
46881;SDS011;44112;38.408;-122.974;2022-10-18T00:07:24;9.63;;;4.10;;
46881;SDS011;44112;38.408;-122.974;2022-10-18T00:09:50;9.38;;;4.03;;
46881;SDS011;44112;38.408;-122.974;2022-10-18T00:12:17;6.65;;;4.10;;
46881;SDS011;44112;38.408;-122.974;2022-10-18T00:14:43;6.65;;;3.90;;
46881;SDS011;44112;38.408;-122.974;2022-10-18T00:17:13;6.90;;;3.55;;
46881;SDS011;44112;38.408;-122.974;2022-10-18T00:19:40;6.68;;;3.47;;
46881;SDS011;44112;38.408;-122.974;2022-10-18T00:22:07;7.15;;;3.78;;
46881;SDS011;44112;38.408;-122.974;2022-10-18T00:24:34;7.47;;;3.60;;
46881;SDS011;44112;38.408;-122.974;2022-10-18T00:27:01;8.38;;;4.60;;
46881;SDS011;44112;38.408;-122.974;2022-10-18T00:29:27;8.93;;;3.80;;
46881;SDS011;44112;38.408;-122.974;2022-10-18T00:31:55;7.32;;;3.78;;
46881;SDS011;44112;38.408;-122.974;2022-10-18T00:34:21;8.93;;;3.88;;
46881;SDS011;44112;38.408;-122.974;2022-10-18T00:36:49;9.10;;;4.05;;
46881;SDS011;44112;38.408;-122.974;2022-10-18T00:39:17;7.60;;;3.40;;
46881;SDS011;44112;38.408;-122.974;2022-10-18T00:41:45;7.07;;;3.85;;
46881;SDS011;44112;38.408;-122.974;2022-10-18T00:46:40;10.63;;;3.85;;
46881;SDS011;44112;38.408;-122.974;2022-10-18T00:54:18;8.15;;;4.00;;
46881;SDS011;44112;38.408;-122.974;2022-10-18T00:56:45;9.40;;;3.53;;
46881;SDS011;44112;38.408;-122.974;2022-10-18T00:59:13;7.47;;;3.85;;
46881;SDS011;44112;38.408;-122.974;2022-10-18T01:01:41;6.82;;;3.65;;
46881;SDS011;44112;38.408;-122.974;2022-10-18T01:04:09;7.57;;;3.75;;
46881;SDS011;44112;38.408;-122.974;2022-10-18T01:06:40;8.45;;;4.30;;
46881;SDS011;44112;38.408;-122.974;2022-10-18T01:09:23;6.63;;;3.92;;
46881;SDS011;44112;38.408;-122.974;2022-10-18T01:15:26;7.38;;;3.47;;
46881;SDS011;44112;38.408;-122.974;2022-10-18T01:17:58;7.30;;;3.90;;
46881;SDS011;44112;38.408;-122.974;2022-10-18T01:20:40;6.57;;;3.70;;
46881;SDS011;44112;38.408;-122.974;2022-10-18T01:25:56;7.25;;;3.78;;
46881;SDS011;44112;38.408;-122.974;2022-10-18T01:31:04;6.10;;;3.67;;
46881;SDS011;44112;38.408;-122.974;2022-10-18T01:33:37;7.72;;;3.90;;
46881;SDS011;44112;38.408;-122.974;2022-10-18T01:38:53;6.07;;;3.25;;
46881;SDS011;44112;38.408;-122.974;2022-10-18T01:41:22;6.68;;;3.63;;
46881;SDS011;44112;38.408;-122.974;2022-10-18T01:43:52;7.90;;;3.85;;
46881;SDS011;44112;38.408;-122.974;2022-10-18T01:46:28;6.32;;;3.72;;
46881;SDS011;44112;38.408;-122.974;2022-10-18T01:48:55;7.00;;;3.85;;
46881;SDS011;44112;38.408;-122.974;2022-10-18T01:51:26;8.45;;;4.22;;
46881;SDS011;44112;38.408;-122.974;2022-10-18T01:53:55;7.25;;;3.70;;
46881;SDS011;44112;38.408;-122.974;2022-10-18T02:10:45;7.28;;;4.07;;
46881;SDS011;44112;38.408;-122.974;2022-10-18T02:13:15;6.68;;;4.00;;
46881;SDS011;44112;38.408;-122.974;2022-10-18T02:15:46;7.25;;;3.90;;
46881;SDS011;44112;38.408;-122.974;2022-10-18T02:18:27;8.25;;;3.80;;
46881;SDS011;44112;38.408;-122.974;2022-10-18T02:21:02;8.52;;;3.75;;
46881;SDS011;44112;38.408;-122.974;2022-10-18T02:23:32;7.13;;;3.72;;
46881;SDS011;44112;38.408;-122.974;2022-10-18T02:25:59;6.80;;;4.28;;
46881;SDS011;44112;38.408;-122.974;2022-10-18T02:28:26;7.28;;;4.00;;
46881;SDS011;44112;38.408;-122.974;2022-10-18T02:31:15;6.72;;;4.05;;
46881;SDS011;44112;38.408;-122.974;2022-10-18T02:33:56;6.72;;;3.90;;
46881;SDS011;44112;38.408;-122.974;2022-10-18T02:36:33;6.75;;;3.95;;
46881;SDS011;44112;38.408;-122.974;2022-10-18T02:39:10;7.53;;;4.40;;
46881;SDS011;44112;38.408;-122.974;2022-10-18T02:41:39;6.60;;;4.05;;
46881;SDS011;44112;38.408;-122.974;2022-10-18T02:44:07;7.35;;;4.03;;
46881;SDS011;44112;38.408;-122.974;2022-10-18T02:46:34;6.68;;;4.00;;
46881;SDS011;44112;38.408;-122.974;2022-10-18T02:49:01;7.00;;;3.97;;
46881;SDS011;44112;38.408;-122.974;2022-10-18T02:51:27;7.03;;;4.25;;
46881;SDS011;44112;38.408;-122.974;2022-10-18T02:53:54;6.80;;;4.10;;
46881;SDS011;44112;38.408;-122.974;2022-10-18T02:56:21;7.03;;;4.30;;
46881;SDS011;44112;38.408;-122.974;2022-10-18T02:58:48;7.45;;;3.90;;
46881;SDS011;44112;38.408;-122.974;2022-10-18T03:01:14;7.32;;;4.18;;
46881;SDS011;44112;38.408;-122.974;2022-10-18T03:03:40;8.32;;;4.32;;
46881;SDS011;44112;38.408;-122.974;2022-10-18T03:06:07;6.28;;;3.83;;
46881;SDS011;44112;38.408;-122.974;2022-10-18T03:08:34;9.52;;;4.53;;
46881;SDS011;44112;38.408;-122.974;2022-10-18T03:11:01;6.95;;;4.03;;
46881;SDS011;44112;38.408;-122.974;2022-10-18T03:13:27;7.95;;;4.70;;
46881;SDS011;44112;38.408;-122.974;2022-10-18T03:15:54;6.60;;;3.78;;
46881;SDS011;44112;38.408;-122.974;2022-10-18T03:18:20;7.97;;;3.92;;
46881;SDS011;44112;38.408;-122.974;2022-10-18T03:20:46;8.27;;;4.15;;
46881;SDS011;44112;38.408;-122.974;2022-10-18T03:23:13;7.10;;;3.72;;
46881;SDS011;44112;38.408;-122.974;2022-10-18T03:25:39;10.15;;;4.80;;
46881;SDS011;44112;38.408;-122.974;2022-10-18T03:28:06;11.07;;;4.60;;
46881;SDS011;44112;38.408;-122.974;2022-10-18T03:30:32;8.82;;;4.78;;
46881;SDS011;44112;38.408;-122.974;2022-10-18T03:32:59;9.45;;;4.63;;
46881;SDS011;44112;38.408;-122.974;2022-10-18T03:35:25;7.63;;;4.28;;
46881;SDS011;44112;38.408;-122.974;2022-10-18T03:37:52;7.88;;;4.60;;
46881;SDS011;44112;38.408;-122.974;2022-10-18T03:40:18;7.60;;;3.95;;
46881;SDS011;44112;38.408;-122.974;2022-10-18T03:42:45;8.20;;;4.35;;
46881;SDS011;44112;38.408;-122.974;2022-10-18T03:45:11;8.02;;;4.30;;
46881;SDS011;44112;38.408;-122.974;2022-10-18T03:47:39;9.52;;;4.70;;
46881;SDS011;44112;38.408;-122.974;2022-10-18T03:50:05;7.38;;;4.03;;
46881;SDS011;44112;38.408;-122.974;2022-10-18T03:52:32;9.05;;;4.50;;
46881;SDS011;44112;38.408;-122.974;2022-10-18T03:54:58;7.85;;;4.20;;
46881;SDS011;44112;38.408;-122.974;2022-10-18T03:57:25;7.15;;;4.07;;
46881;SDS011;44112;38.408;-122.974;2022-10-18T03:59:51;9.10;;;4.53;;
46881;SDS011;44112;38.408;-122.974;2022-10-18T04:02:18;7.65;;;4.00;;
46881;SDS011;44112;38.408;-122.974;2022-10-18T04:04:44;8.65;;;4.70;;
46881;SDS011;44112;38.408;-122.974;2022-10-18T04:07:10;7.40;;;4.30;;
46881;SDS011;44112;38.408;-122.974;2022-10-18T04:09:37;7.75;;;4.30;;
46881;SDS011;44112;38.408;-122.974;2022-10-18T04:12:03;7.90;;;4.40;;
46881;SDS011;44112;38.408;-122.974;2022-10-18T04:14:30;7.88;;;4.38;;
46881;SDS011;44112;38.408;-122.974;2022-10-18T04:16:56;6.82;;;4.28;;
46881;SDS011;44112;38.408;-122.974;2022-10-18T04:19:23;7.43;;;4.00;;
46881;SDS011;44112;38.408;-122.974;2022-10-18T04:21:49;7.47;;;4.15;;
46881;SDS011;44112;38.408;-122.974;2022-10-18T04:24:16;8.52;;;4.30;;
46881;SDS011;44112;38.408;-122.974;2022-10-18T04:26:42;7.00;;;4.30;;
46881;SDS011;44112;38.408;-122.974;2022-10-18T04:29:09;7.28;;;4.15;;
46881;SDS011;44112;38.408;-122.974;2022-10-18T04:31:35;7.43;;;4.50;;
46881;SDS011;44112;38.408;-122.974;2022-10-18T04:34:02;7.95;;;4.22;;
46881;SDS011;44112;38.408;-122.974;2022-10-18T04:36:29;8.55;;;4.32;;
46881;SDS011;44112;38.408;-122.974;2022-10-18T04:38:56;7.55;;;4.07;;
46881;SDS011;44112;38.408;-122.974;2022-10-18T04:41:22;6.63;;;4.30;;
46881;SDS011;44112;38.408;-122.974;2022-10-18T04:43:48;8.43;;;4.35;;
46881;SDS011;44112;38.408;-122.974;2022-10-18T04:46:15;8.25;;;4.07;;
46881;SDS011;44112;38.408;-122.974;2022-10-18T04:48:41;8.27;;;4.68;;
46881;SDS011;44112;38.408;-122.974;2022-10-18T04:51:08;7.00;;;4.18;;
46881;SDS011;44112;38.408;-122.974;2022-10-18T04:53:34;7.03;;;4.15;;
46881;SDS011;44112;38.408;-122.974;2022-10-18T04:56:00;9.52;;;4.65;;
46881;SDS011;44112;38.408;-122.974;2022-10-18T04:58:27;9.13;;;4.47;;
46881;SDS011;44112;38.408;-122.974;2022-10-18T05:00:53;6.85;;;4.20;;
46881;SDS011;44112;38.408;-122.974;2022-10-18T05:03:20;7.57;;;4.15;;
46881;SDS011;44112;38.408;-122.974;2022-10-18T05:05:46;7.72;;;4.30;;
46881;SDS011;44112;38.408;-122.974;2022-10-18T05:08:12;8.07;;;4.20;;
46881;SDS011;44112;38.408;-122.974;2022-10-18T05:10:39;8.73;;;4.57;;
46881;SDS011;44112;38.408;-122.974;2022-10-18T05:13:05;7.10;;;4.30;;
46881;SDS011;44112;38.408;-122.974;2022-10-18T05:15:32;7.50;;;4.35;;
46881;SDS011;44112;38.408;-122.974;2022-10-18T05:17:58;8.02;;;4.55;;
46881;SDS011;44112;38.408;-122.974;2022-10-18T05:20:24;8.98;;;4.65;;
46881;SDS011;44112;38.408;-122.974;2022-10-18T05:22:51;7.97;;;4.10;;
46881;SDS011;44112;38.408;-122.974;2022-10-18T05:25:17;8.55;;;4.57;;
46881;SDS011;44112;38.408;-122.974;2022-10-18T05:27:44;6.72;;;4.10;;
46881;SDS011;44112;38.408;-122.974;2022-10-18T05:30:10;6.90;;;4.40;;
46881;SDS011;44112;38.408;-122.974;2022-10-18T05:32:37;7.63;;;4.40;;
46881;SDS011;44112;38.408;-122.974;2022-10-18T05:35:04;8.40;;;4.65;;
46881;SDS011;44112;38.408;-122.974;2022-10-18T05:37:31;7.10;;;4.57;;
46881;SDS011;44112;38.408;-122.974;2022-10-18T05:39:58;7.25;;;4.40;;
46881;SDS011;44112;38.408;-122.974;2022-10-18T05:42:25;7.43;;;4.40;;
46881;SDS011;44112;38.408;-122.974;2022-10-18T05:44:53;7.07;;;4.30;;
46881;SDS011;44112;38.408;-122.974;2022-10-18T05:47:19;7.50;;;4.22;;
46881;SDS011;44112;38.408;-122.974;2022-10-18T05:49:47;6.82;;;4.10;;
46881;SDS011;44112;38.408;-122.974;2022-10-18T05:52:13;7.00;;;4.35;;
46881;SDS011;44112;38.408;-122.974;2022-10-18T05:54:41;7.05;;;4.30;;
46881;SDS011;44112;38.408;-122.974;2022-10-18T05:57:08;6.47;;;4.22;;
46881;SDS011;44112;38.408;-122.974;2022-10-18T05:59:34;7.28;;;4.38;;
46881;SDS011;44112;38.408;-122.974;2022-10-18T06:02:02;7.93;;;4.50;;
46881;SDS011;44112;38.408;-122.974;2022-10-18T06:04:29;8.50;;;4.65;;
46881;SDS011;44112;38.408;-122.974;2022-10-18T06:06:56;8.98;;;4.70;;
46881;SDS011;44112;38.408;-122.974;2022-10-18T06:09:22;7.40;;;4.30;;
46881;SDS011;44112;38.408;-122.974;2022-10-18T06:11:50;7.60;;;4.63;;
46881;SDS011;44112;38.408;-122.974;2022-10-18T06:14:16;7.55;;;4.40;;
46881;SDS011;44112;38.408;-122.974;2022-10-18T06:16:43;14.23;;;4.75;;
46881;SDS011;44112;38.408;-122.974;2022-10-18T06:19:09;7.80;;;4.35;;
46881;SDS011;44112;38.408;-122.974;2022-10-18T06:21:37;8.25;;;4.63;;
46881;SDS011;44112;38.408;-122.974;2022-10-18T06:24:04;7.75;;;4.22;;
46881;SDS011;44112;38.408;-122.974;2022-10-18T06:26:31;8.35;;;4.72;;
46881;SDS011;44112;38.408;-122.974;2022-10-18T06:28:57;8.73;;;4.63;;
46881;SDS011;44112;38.408;-122.974;2022-10-18T06:31:24;8.43;;;4.70;;
46881;SDS011;44112;38.408;-122.974;2022-10-18T06:33:51;7.95;;;4.47;;
46881;SDS011;44112;38.408;-122.974;2022-10-18T06:36:18;7.72;;;4.40;;
46881;SDS011;44112;38.408;-122.974;2022-10-18T06:38:49;7.45;;;4.30;;
46881;SDS011;44112;38.408;-122.974;2022-10-18T06:41:16;8.18;;;4.32;;
46881;SDS011;44112;38.408;-122.974;2022-10-18T06:43:49;7.60;;;4.20;;
46881;SDS011;44112;38.408;-122.974;2022-10-18T06:46:20;6.82;;;4.30;;
46881;SDS011;44112;38.408;-122.974;2022-10-18T06:48:47;6.80;;;4.20;;
46881;SDS011;44112;38.408;-122.974;2022-10-18T06:51:14;7.95;;;4.30;;
46881;SDS011;44112;38.408;-122.974;2022-10-18T06:53:40;7.78;;;4.47;;
46881;SDS011;44112;38.408;-122.974;2022-10-18T06:56:08;8.50;;;4.80;;
46881;SDS011;44112;38.408;-122.974;2022-10-18T06:58:37;6.75;;;4.30;;
46881;SDS011;44112;38.408;-122.974;2022-10-18T07:01:07;7.10;;;4.40;;
46881;SDS011;44112;38.408;-122.974;2022-10-18T07:03:40;7.03;;;4.53;;
46881;SDS011;44112;38.408;-122.974;2022-10-18T07:06:08;7.70;;;4.75;;
46881;SDS011;44112;38.408;-122.974;2022-10-18T07:08:36;7.75;;;4.78;;
46881;SDS011;44112;38.408;-122.974;2022-10-18T07:11:03;8.15;;;4.80;;
46881;SDS011;44112;38.408;-122.974;2022-10-18T07:13:31;6.78;;;4.35;;
46881;SDS011;44112;38.408;-122.974;2022-10-18T07:16:02;7.80;;;4.45;;
46881;SDS011;44112;38.408;-122.974;2022-10-18T07:18:40;7.28;;;4.15;;
46881;SDS011;44112;38.408;-122.974;2022-10-18T07:21:11;6.72;;;3.95;;
46881;SDS011;44112;38.408;-122.974;2022-10-18T07:23:39;7.68;;;4.00;;
46881;SDS011;44112;38.408;-122.974;2022-10-18T07:26:15;7.65;;;4.63;;
46881;SDS011;44112;38.408;-122.974;2022-10-18T07:29:03;8.02;;;4.50;;
46881;SDS011;44112;38.408;-122.974;2022-10-18T07:31:32;7.03;;;4.22;;
46881;SDS011;44112;38.408;-122.974;2022-10-18T07:33:59;6.85;;;4.28;;
46881;SDS011;44112;38.408;-122.974;2022-10-18T07:36:28;7.47;;;4.30;;
46881;SDS011;44112;38.408;-122.974;2022-10-18T07:38:55;7.57;;;4.57;;
46881;SDS011;44112;38.408;-122.974;2022-10-18T07:41:22;8.40;;;4.28;;
46881;SDS011;44112;38.408;-122.974;2022-10-18T07:43:49;8.25;;;4.50;;
46881;SDS011;44112;38.408;-122.974;2022-10-18T07:46:17;6.78;;;4.35;;
46881;SDS011;44112;38.408;-122.974;2022-10-18T07:48:45;6.97;;;4.43;;
46881;SDS011;44112;38.408;-122.974;2022-10-18T07:51:12;7.05;;;4.53;;
46881;SDS011;44112;38.408;-122.974;2022-10-18T07:53:39;7.93;;;4.78;;
46881;SDS011;44112;38.408;-122.974;2022-10-18T07:56:06;7.60;;;4.63;;
46881;SDS011;44112;38.408;-122.974;2022-10-18T08:01:07;7.75;;;4.40;;
46881;SDS011;44112;38.408;-122.974;2022-10-18T08:03:34;7.38;;;4.40;;
46881;SDS011;44112;38.408;-122.974;2022-10-18T08:06:02;6.78;;;4.55;;
46881;SDS011;44112;38.408;-122.974;2022-10-18T08:08:33;7.93;;;4.05;;
46881;SDS011;44112;38.408;-122.974;2022-10-18T08:11:01;7.82;;;4.63;;
46881;SDS011;44112;38.408;-122.974;2022-10-18T08:13:29;8.38;;;4.28;;
46881;SDS011;44112;38.408;-122.974;2022-10-18T08:16:02;7.10;;;4.40;;
46881;SDS011;44112;38.408;-122.974;2022-10-18T08:18:34;6.80;;;4.47;;
46881;SDS011;44112;38.408;-122.974;2022-10-18T08:21:01;7.43;;;4.30;;
46881;SDS011;44112;38.408;-122.974;2022-10-18T08:23:30;6.75;;;4.28;;
46881;SDS011;44112;38.408;-122.974;2022-10-18T08:25:59;7.22;;;4.47;;
46881;SDS011;44112;38.408;-122.974;2022-10-18T08:28:30;7.07;;;4.47;;
46881;SDS011;44112;38.408;-122.974;2022-10-18T08:31:00;6.97;;;4.13;;
46881;SDS011;44112;38.408;-122.974;2022-10-18T08:33:28;7.93;;;4.53;;
46881;SDS011;44112;38.408;-122.974;2022-10-18T08:35:56;7.88;;;4.72;;
46881;SDS011;44112;38.408;-122.974;2022-10-18T08:38:23;6.97;;;4.47;;
46881;SDS011;44112;38.408;-122.974;2022-10-18T08:40:50;6.70;;;4.38;;
46881;SDS011;44112;38.408;-122.974;2022-10-18T08:43:21;6.70;;;4.40;;
46881;SDS011;44112;38.408;-122.974;2022-10-18T08:45:52;7.15;;;4.28;;
46881;SDS011;44112;38.408;-122.974;2022-10-18T08:48:21;6.68;;;4.03;;
46881;SDS011;44112;38.408;-122.974;2022-10-18T08:50:57;7.53;;;4.43;;
46881;SDS011;44112;38.408;-122.974;2022-10-18T08:53:28;6.43;;;4.40;;
46881;SDS011;44112;38.408;-122.974;2022-10-18T08:56:13;7.55;;;4.63;;
46881;SDS011;44112;38.408;-122.974;2022-10-18T08:58:45;6.60;;;4.38;;
46881;SDS011;44112;38.408;-122.974;2022-10-18T09:06:34;8.05;;;4.40;;
46881;SDS011;44112;38.408;-122.974;2022-10-18T09:18:03;7.07;;;4.32;;
46881;SDS011;44112;38.408;-122.974;2022-10-18T09:23:19;7.20;;;4.38;;
46881;SDS011;44112;38.408;-122.974;2022-10-18T09:25:54;6.50;;;4.20;;
46881;SDS011;44112;38.408;-122.974;2022-10-18T09:31:20;7.40;;;4.40;;
46881;SDS011;44112;38.408;-122.974;2022-10-18T09:34:07;7.47;;;4.38;;
46881;SDS011;44112;38.408;-122.974;2022-10-18T09:36:56;6.95;;;4.20;;
46881;SDS011;44112;38.408;-122.974;2022-10-18T09:39:33;8.63;;;4.90;;
46881;SDS011;44112;38.408;-122.974;2022-10-18T09:42:03;6.90;;;4.30;;
46881;SDS011;44112;38.408;-122.974;2022-10-18T09:44:32;7.10;;;4.20;;
46881;SDS011;44112;38.408;-122.974;2022-10-18T09:47:24;6.63;;;4.40;;
46881;SDS011;44112;38.408;-122.974;2022-10-18T09:49:58;6.65;;;4.10;;
46881;SDS011;44112;38.408;-122.974;2022-10-18T09:52:33;7.30;;;4.30;;
46881;SDS011;44112;38.408;-122.974;2022-10-18T09:55:12;7.05;;;4.47;;
46881;SDS011;44112;38.408;-122.974;2022-10-18T09:57:49;6.78;;;4.22;;
46881;SDS011;44112;38.408;-122.974;2022-10-18T10:00:33;8.15;;;4.57;;
46881;SDS011;44112;38.408;-122.974;2022-10-18T10:03:08;7.00;;;4.20;;
46881;SDS011;44112;38.408;-122.974;2022-10-18T10:05:39;6.43;;;4.28;;
46881;SDS011;44112;38.408;-122.974;2022-10-18T10:08:06;6.50;;;4.10;;
46881;SDS011;44112;38.408;-122.974;2022-10-18T10:10:33;6.95;;;4.40;;
46881;SDS011;44112;38.408;-122.974;2022-10-18T10:13:06;6.68;;;4.30;;
46881;SDS011;44112;38.408;-122.974;2022-10-18T10:15:54;6.53;;;4.13;;
46881;SDS011;44112;38.408;-122.974;2022-10-18T10:18:26;6.85;;;4.50;;
46881;SDS011;44112;38.408;-122.974;2022-10-18T10:20:57;7.07;;;4.20;;
46881;SDS011;44112;38.408;-122.974;2022-10-18T10:23:35;6.30;;;3.90;;
46881;SDS011;44112;38.408;-122.974;2022-10-18T10:26:26;6.63;;;4.10;;
46881;SDS011;44112;38.408;-122.974;2022-10-18T10:28:55;6.95;;;4.57;;
46881;SDS011;44112;38.408;-122.974;2022-10-18T10:31:31;7.93;;;4.50;;
46881;SDS011;44112;38.408;-122.974;2022-10-18T10:36:50;6.57;;;4.25;;
46881;SDS011;44112;38.408;-122.974;2022-10-18T10:39:19;7.07;;;4.50;;
46881;SDS011;44112;38.408;-122.974;2022-10-18T10:44:15;6.82;;;4.32;;
46881;SDS011;44112;38.408;-122.974;2022-10-18T10:46:43;6.50;;;4.05;;
46881;SDS011;44112;38.408;-122.974;2022-10-18T10:49:20;6.53;;;4.03;;
46881;SDS011;44112;38.408;-122.974;2022-10-18T10:52:00;7.50;;;4.68;;
46881;SDS011;44112;38.408;-122.974;2022-10-18T10:54:29;7.40;;;4.40;;
46881;SDS011;44112;38.408;-122.974;2022-10-18T10:57:05;7.20;;;4.32;;
46881;SDS011;44112;38.408;-122.974;2022-10-18T10:59:46;6.28;;;4.10;;
46881;SDS011;44112;38.408;-122.974;2022-10-18T11:02:31;6.93;;;4.22;;
46881;SDS011;44112;38.408;-122.974;2022-10-18T11:05:32;6.72;;;4.22;;
46881;SDS011;44112;38.408;-122.974;2022-10-18T11:08:01;7.37;;;4.50;;
46881;SDS011;44112;38.408;-122.974;2022-10-18T11:10:29;6.60;;;4.30;;
46881;SDS011;44112;38.408;-122.974;2022-10-18T11:15:51;6.93;;;4.30;;
46881;SDS011;44112;38.408;-122.974;2022-10-18T11:18:29;6.90;;;4.25;;
46881;SDS011;44112;38.408;-122.974;2022-10-18T11:21:12;6.57;;;4.13;;
46881;SDS011;44112;38.408;-122.974;2022-10-18T11:23:58;6.40;;;4.20;;
46881;SDS011;44112;38.408;-122.974;2022-10-18T11:32:07;6.75;;;4.30;;
46881;SDS011;44112;38.408;-122.974;2022-10-18T11:37:29;6.88;;;4.30;;
46881;SDS011;44112;38.408;-122.974;2022-10-18T11:42:55;6.97;;;4.63;;
46881;SDS011;44112;38.408;-122.974;2022-10-18T11:56:31;7.15;;;4.40;;
46881;SDS011;44112;38.408;-122.974;2022-10-18T12:04:37;6.82;;;4.20;;
46881;SDS011;44112;38.408;-122.974;2022-10-18T12:07:09;6.72;;;4.43;;
46881;SDS011;44112;38.408;-122.974;2022-10-18T12:09:43;6.90;;;4.63;;
46881;SDS011;44112;38.408;-122.974;2022-10-18T12:12:18;7.50;;;4.30;;
46881;SDS011;44112;38.408;-122.974;2022-10-18T12:14:57;8.73;;;4.55;;
46881;SDS011;44112;38.408;-122.974;2022-10-18T12:20:45;7.45;;;4.32;;
46881;SDS011;44112;38.408;-122.974;2022-10-18T12:23:16;6.65;;;4.15;;
46881;SDS011;44112;38.408;-122.974;2022-10-18T12:25:55;6.80;;;4.30;;
46881;SDS011;44112;38.408;-122.974;2022-10-18T12:31:21;7.82;;;4.50;;
46881;SDS011;44112;38.408;-122.974;2022-10-18T12:34:41;6.43;;;3.72;;
46881;SDS011;44112;38.408;-122.974;2022-10-18T12:40:04;6.43;;;4.20;;
46881;SDS011;44112;38.408;-122.974;2022-10-18T12:42:48;6.78;;;4.40;;
46881;SDS011;44112;38.408;-122.974;2022-10-18T12:47:52;6.80;;;4.45;;
46881;SDS011;44112;38.408;-122.974;2022-10-18T12:50:25;8.07;;;4.40;;
46881;SDS011;44112;38.408;-122.974;2022-10-18T12:53:00;6.90;;;4.43;;
46881;SDS011;44112;38.408;-122.974;2022-10-18T12:55:33;6.85;;;4.03;;
46881;SDS011;44112;38.408;-122.974;2022-10-18T12:58:03;6.88;;;4.28;;
46881;SDS011;44112;38.408;-122.974;2022-10-18T13:00:51;7.05;;;4.35;;
46881;SDS011;44112;38.408;-122.974;2022-10-18T13:05:58;6.45;;;4.35;;
46881;SDS011;44112;38.408;-122.974;2022-10-18T13:22:29;7.00;;;4.35;;
46881;SDS011;44112;38.408;-122.974;2022-10-18T13:25:35;7.10;;;4.50;;
46881;SDS011;44112;38.408;-122.974;2022-10-18T13:28:26;6.95;;;4.22;;
46881;SDS011;44112;38.408;-122.974;2022-10-18T13:33:53;7.05;;;4.55;;
46881;SDS011;44112;38.408;-122.974;2022-10-18T13:36:23;7.10;;;4.75;;
46881;SDS011;44112;38.408;-122.974;2022-10-18T13:41:22;7.45;;;4.72;;
46881;SDS011;44112;38.408;-122.974;2022-10-18T14:13:50;6.80;;;4.40;;
46881;SDS011;44112;38.408;-122.974;2022-10-18T14:16:33;6.87;;;4.30;;
46881;SDS011;44112;38.408;-122.974;2022-10-18T14:22:21;8.13;;;4.63;;
46881;SDS011;44112;38.408;-122.974;2022-10-18T14:25:17;7.50;;;4.40;;
46881;SDS011;44112;38.408;-122.974;2022-10-18T14:30:50;7.50;;;4.95;;
46881;SDS011;44112;38.408;-122.974;2022-10-18T14:36:26;7.28;;;4.78;;
46881;SDS011;44112;38.408;-122.974;2022-10-18T14:38:50;7.07;;;4.70;;
46881;SDS011;44112;38.408;-122.974;2022-10-18T14:41:25;7.97;;;4.80;;
46881;SDS011;44112;38.408;-122.974;2022-10-18T14:43:52;7.20;;;4.38;;
46881;SDS011;44112;38.408;-122.974;2022-10-18T14:46:40;6.60;;;4.27;;
46881;SDS011;44112;38.408;-122.974;2022-10-18T14:49:11;6.93;;;4.28;;
46881;SDS011;44112;38.408;-122.974;2022-10-18T14:51:41;6.68;;;4.18;;
46881;SDS011;44112;38.408;-122.974;2022-10-18T14:54:15;6.53;;;4.30;;
46881;SDS011;44112;38.408;-122.974;2022-10-18T14:56:44;7.45;;;4.13;;
46881;SDS011;44112;38.408;-122.974;2022-10-18T14:59:15;7.22;;;4.95;;
46881;SDS011;44112;38.408;-122.974;2022-10-18T15:04:38;7.47;;;4.28;;
46881;SDS011;44112;38.408;-122.974;2022-10-18T15:07:12;6.40;;;4.18;;
46881;SDS011;44112;38.408;-122.974;2022-10-18T15:09:42;9.15;;;4.47;;
46881;SDS011;44112;38.408;-122.974;2022-10-18T15:12:11;7.05;;;4.30;;
46881;SDS011;44112;38.408;-122.974;2022-10-18T15:14:40;7.05;;;4.50;;
46881;SDS011;44112;38.408;-122.974;2022-10-18T15:17:30;6.80;;;4.32;;
46881;SDS011;44112;38.408;-122.974;2022-10-18T15:19:58;7.35;;;4.10;;
46881;SDS011;44112;38.408;-122.974;2022-10-18T15:22:27;6.30;;;4.10;;
46881;SDS011;44112;38.408;-122.974;2022-10-18T15:25:15;7.53;;;4.07;;
46881;SDS011;44112;38.408;-122.974;2022-10-18T15:27:46;7.38;;;4.22;;
46881;SDS011;44112;38.408;-122.974;2022-10-18T15:33:06;6.70;;;4.13;;
46881;SDS011;44112;38.408;-122.974;2022-10-18T15:35:36;7.35;;;4.53;;
46881;SDS011;44112;38.408;-122.974;2022-10-18T15:40:40;6.43;;;4.22;;
46881;SDS011;44112;38.408;-122.974;2022-10-18T15:48:25;7.40;;;4.53;;
46881;SDS011;44112;38.408;-122.974;2022-10-18T15:51:02;6.47;;;3.78;;
46881;SDS011;44112;38.408;-122.974;2022-10-18T15:53:34;6.72;;;4.03;;
46881;SDS011;44112;38.408;-122.974;2022-10-18T15:56:25;6.43;;;4.18;;
46881;SDS011;44112;38.408;-122.974;2022-10-18T15:58:54;6.30;;;4.00;;
46881;SDS011;44112;38.408;-122.974;2022-10-18T16:01:26;6.63;;;4.00;;
46881;SDS011;44112;38.408;-122.974;2022-10-18T16:04:01;6.20;;;4.00;;
46881;SDS011;44112;38.408;-122.974;2022-10-18T16:06:32;7.00;;;4.32;;
46881;SDS011;44112;38.408;-122.974;2022-10-18T16:09:02;7.57;;;4.40;;
46881;SDS011;44112;38.408;-122.974;2022-10-18T16:11:29;7.00;;;4.30;;
46881;SDS011;44112;38.408;-122.974;2022-10-18T16:13:56;8.32;;;4.30;;
46881;SDS011;44112;38.408;-122.974;2022-10-18T16:16:24;6.68;;;4.40;;
46881;SDS011;44112;38.408;-122.974;2022-10-18T16:18:53;6.82;;;4.32;;
46881;SDS011;44112;38.408;-122.974;2022-10-18T16:21:21;6.30;;;4.00;;
46881;SDS011;44112;38.408;-122.974;2022-10-18T16:23:50;6.72;;;3.90;;
46881;SDS011;44112;38.408;-122.974;2022-10-18T16:26:18;6.07;;;3.80;;
46881;SDS011;44112;38.408;-122.974;2022-10-18T16:28:45;7.22;;;4.20;;
46881;SDS011;44112;38.408;-122.974;2022-10-18T16:31:19;8.20;;;4.60;;
46881;SDS011;44112;38.408;-122.974;2022-10-18T16:33:47;7.57;;;4.43;;
46881;SDS011;44112;38.408;-122.974;2022-10-18T16:36:15;6.35;;;4.15;;
46881;SDS011;44112;38.408;-122.974;2022-10-18T16:38:43;7.45;;;4.35;;
46881;SDS011;44112;38.408;-122.974;2022-10-18T16:41:10;6.70;;;4.13;;
46881;SDS011;44112;38.408;-122.974;2022-10-18T16:43:40;6.78;;;4.03;;
46881;SDS011;44112;38.408;-122.974;2022-10-18T16:46:18;6.72;;;4.30;;
46881;SDS011;44112;38.408;-122.974;2022-10-18T16:48:47;7.10;;;4.25;;
46881;SDS011;44112;38.408;-122.974;2022-10-18T16:51:14;6.90;;;4.07;;
46881;SDS011;44112;38.408;-122.974;2022-10-18T16:53:41;6.18;;;3.80;;
46881;SDS011;44112;38.408;-122.974;2022-10-18T16:56:12;6.82;;;4.40;;
46881;SDS011;44112;38.408;-122.974;2022-10-18T16:58:44;7.32;;;4.30;;
46881;SDS011;44112;38.408;-122.974;2022-10-18T17:01:11;6.78;;;4.55;;
46881;SDS011;44112;38.408;-122.974;2022-10-18T17:03:40;6.90;;;4.10;;
46881;SDS011;44112;38.408;-122.974;2022-10-18T17:06:40;6.75;;;4.32;;
46881;SDS011;44112;38.408;-122.974;2022-10-18T17:09:00;6.57;;;4.07;;
46881;SDS011;44112;38.408;-122.974;2022-10-18T17:11:27;7.80;;;4.88;;
46881;SDS011;44112;38.408;-122.974;2022-10-18T17:13:54;21.48;;;6.45;;
46881;SDS011;44112;38.408;-122.974;2022-10-18T17:16:25;20.48;;;7.15;;
46881;SDS011;44112;38.408;-122.974;2022-10-18T17:18:55;18.45;;;5.50;;
46881;SDS011;44112;38.408;-122.974;2022-10-18T17:21:25;23.98;;;5.85;;
46881;SDS011;44112;38.408;-122.974;2022-10-18T17:23:52;9.88;;;5.15;;
46881;SDS011;44112;38.408;-122.974;2022-10-18T17:26:20;11.02;;;5.07;;